sensor_id;sensor_type;location;lat;lon;timestamp;pressure;altitude;pressure_sealevel;temperature;humidity
11099;BME280;12223;42.650;23.364;2023-02-14T00:00:04;96138.13;;;2.50;100.00
11099;BME280;12223;42.650;23.364;2023-02-14T00:02:31;96134.72;;;2.50;100.00
11099;BME280;12223;42.650;23.364;2023-02-14T00:04:58;96140.88;;;2.49;100.00
11099;BME280;12223;42.650;23.364;2023-02-14T00:07:25;96134.16;;;2.56;100.00
11099;BME280;12223;42.650;23.364;2023-02-14T00:09:52;96130.03;;;2.53;100.00
11099;BME280;12223;42.650;23.364;2023-02-14T00:12:18;96128.53;;;2.60;100.00
11099;BME280;12223;42.650;23.364;2023-02-14T00:14:46;96130.03;;;2.53;100.00
11099;BME280;12223;42.650;23.364;2023-02-14T00:17:31;96135.13;;;2.55;100.00
11099;BME280;12223;42.650;23.364;2023-02-14T00:19:57;96137.72;;;2.45;100.00
11099;BME280;12223;42.650;23.364;2023-02-14T00:22:24;96134.00;;;2.48;100.00
11099;BME280;12223;42.650;23.364;2023-02-14T00:24:51;96134.72;;;2.50;100.00
11099;BME280;12223;42.650;23.364;2023-02-14T00:27:18;96132.91;;;2.50;100.00
11099;BME280;12223;42.650;23.364;2023-02-14T00:29:44;96125.91;;;2.41;100.00
11099;BME280;12223;42.650;23.364;2023-02-14T00:32:12;96135.66;;;2.49;100.00
11099;BME280;12223;42.650;23.364;2023-02-14T00:34:40;96133.47;;;2.44;100.00
11099;BME280;12223;42.650;23.364;2023-02-14T00:37:08;96134.97;;;2.56;100.00
11099;BME280;12223;42.650;23.364;2023-02-14T00:39:35;96123.75;;;2.65;100.00
11099;BME280;12223;42.650;23.364;2023-02-14T00:42:02;96134.28;;;2.73;100.00
11099;BME280;12223;42.650;23.364;2023-02-14T00:44:29;96122.19;;;2.72;100.00
11099;BME280;12223;42.650;23.364;2023-02-14T00:46:55;96120.56;;;2.81;100.00
11099;BME280;12223;42.650;23.364;2023-02-14T00:49:23;96125.34;;;2.86;100.00
11099;BME280;12223;42.650;23.364;2023-02-14T00:51:50;96115.38;;;2.71;100.00
11099;BME280;12223;42.650;23.364;2023-02-14T00:54:17;96122.38;;;2.71;100.00
11099;BME280;12223;42.650;23.364;2023-02-14T00:56:44;96121.09;;;2.84;100.00
11099;BME280;12223;42.650;23.364;2023-02-14T00:59:10;96110.81;;;2.83;100.00
11099;BME280;12223;42.650;23.364;2023-02-14T01:01:37;96101.75;;;2.77;100.00
11099;BME280;12223;42.650;23.364;2023-02-14T01:04:04;96105.19;;;2.68;100.00
11099;BME280;12223;42.650;23.364;2023-02-14T01:06:33;96105.72;;;2.81;100.00
11099;BME280;12223;42.650;23.364;2023-02-14T01:09:00;96096.66;;;2.66;100.00
11099;BME280;12223;42.650;23.364;2023-02-14T01:11:26;96101.91;;;2.76;100.00
11099;BME280;12223;42.650;23.364;2023-02-14T01:13:55;96110.16;;;2.71;100.00
11099;BME280;12223;42.650;23.364;2023-02-14T01:16:25;96098.63;;;2.64;100.00
11099;BME280;12223;42.650;23.364;2023-02-14T01:18:52;96086.25;;;2.57;100.00
11099;BME280;12223;42.650;23.364;2023-02-14T01:21:21;96092.84;;;2.51;100.00
11099;BME280;12223;42.650;23.364;2023-02-14T01:23:51;96093.00;;;2.59;100.00
11099;BME280;12223;42.650;23.364;2023-02-14T01:26:19;96090.78;;;2.64;100.00
11099;BME280;12223;42.650;23.364;2023-02-14T01:28:47;96076.34;;;2.60;100.00
11099;BME280;12223;42.650;23.364;2023-02-14T01:31:15;96077.47;;;2.58;100.00
11099;BME280;12223;42.650;23.364;2023-02-14T01:33:44;96086.25;;;2.57;100.00
11099;BME280;12223;42.650;23.364;2023-02-14T01:36:16;96086.25;;;2.47;100.00
11099;BME280;12223;42.650;23.364;2023-02-14T01:38:42;96070.75;;;2.55;100.00
11099;BME280;12223;42.650;23.364;2023-02-14T01:41:11;96066.47;;;2.54;100.00
11099;BME280;12223;42.650;23.364;2023-02-14T01:43:52;96059.91;;;2.50;100.00
11099;BME280;12223;42.650;23.364;2023-02-14T01:46:19;96056.88;;;2.55;100.00
11099;BME280;12223;42.650;23.364;2023-02-14T01:48:46;96067.31;;;2.55;100.00
11099;BME280;12223;42.650;23.364;2023-02-14T01:51:15;96059.22;;;2.48;100.00
11099;BME280;12223;42.650;23.364;2023-02-14T01:53:44;96050.28;;;2.41;100.00
11099;BME280;12223;42.650;23.364;2023-02-14T01:56:17;96050.03;;;2.44;100.00
11099;BME280;12223;42.650;23.364;2023-02-14T01:58:51;96048.78;;;2.48;100.00
11099;BME280;12223;42.650;23.364;2023-02-14T02:01:18;96057.44;;;2.49;100.00
11099;BME280;12223;42.650;23.364;2023-02-14T02:03:48;96047.81;;;2.49;100.00
11099;BME280;12223;42.650;23.364;2023-02-14T02:06:20;96046.19;;;2.48;100.00
11099;BME280;12223;42.650;23.364;2023-02-14T02:08:53;96048.53;;;2.51;100.00
11099;BME280;12223;42.650;23.364;2023-02-14T02:11:24;96055.78;;;2.48;100.00
11099;BME280;12223;42.650;23.364;2023-02-14T02:13:52;96019.44;;;2.17;100.00
11099;BME280;12223;42.650;23.364;2023-02-14T02:16:29;96052.63;;;2.44;100.00
11099;BME280;12223;42.650;23.364;2023-02-14T02:19:16;96048.81;;;2.38;100.00
11099;BME280;12223;42.650;23.364;2023-02-14T02:24:50;96050.28;;;2.41;100.00
11099;BME280;12223;42.650;23.364;2023-02-14T02:27:36;96035.63;;;2.40;100.00
11099;BME280;12223;42.650;23.364;2023-02-14T02:33:36;96016.13;;;2.44;100.00
11099;BME280;12223;42.650;23.364;2023-02-14T02:39:09;96014.06;;;2.48;100.00
11099;BME280;12223;42.650;23.364;2023-02-14T02:41:47;96016.53;;;2.49;100.00
11099;BME280;12223;42.650;23.364;2023-02-14T02:44:18;96012.28;;;2.48;100.00
11099;BME280;12223;42.650;23.364;2023-02-14T02:46:53;96004.84;;;2.53;100.00
11099;BME280;12223;42.650;23.364;2023-02-14T02:49:34;96008.03;;;2.47;100.00
11099;BME280;12223;42.650;23.364;2023-02-14T02:52:26;96003.81;;;2.46;100.00
11099;BME280;12223;42.650;23.364;2023-02-14T02:55:19;96009.56;;;2.40;100.00
11099;BME280;12223;42.650;23.364;2023-02-14T02:57:50;96011.09;;;2.33;100.00
11099;BME280;12223;42.650;23.364;2023-02-14T03:00:19;96019.44;;;2.36;100.00
11099;BME280;12223;42.650;23.364;2023-02-14T03:02:49;96010.91;;;2.34;100.00
11099;BME280;12223;42.650;23.364;2023-02-14T03:05:34;96021.63;;;2.31;100.00
11099;BME280;12223;42.650;23.364;2023-02-14T03:08:03;96010.91;;;2.34;100.00
11099;BME280;12223;42.650;23.364;2023-02-14T03:10:33;96020.13;;;2.38;100.00
11099;BME280;12223;42.650;23.364;2023-02-14T03:13:36;96015.19;;;2.35;100.00
11099;BME280;12223;42.650;23.364;2023-02-14T03:19:41;96015.88;;;2.28;100.00
11099;BME280;12223;42.650;23.364;2023-02-14T03:22:40;95998.31;;;2.30;100.00
11099;BME280;12223;42.650;23.364;2023-02-14T03:25:20;96000.66;;;2.23;100.00
11099;BME280;12223;42.650;23.364;2023-02-14T03:27:53;96002.97;;;2.36;100.00
11099;BME280;12223;42.650;23.364;2023-02-14T03:30:29;95982.28;;;2.25;100.00
11099;BME280;12223;42.650;23.364;2023-02-14T03:33:07;95992.66;;;2.34;100.00
11099;BME280;12223;42.650;23.364;2023-02-14T03:35:44;95983.53;;;2.21;100.00
11099;BME280;12223;42.650;23.364;2023-02-14T03:38:16;95997.09;;;2.34;100.00
11099;BME280;12223;42.650;23.364;2023-02-14T03:40:50;95995.69;;;2.30;100.00
11099;BME280;12223;42.650;23.364;2023-02-14T03:43:24;95987.06;;;2.29;100.00
11099;BME280;12223;42.650;23.364;2023-02-14T03:45:57;95984.47;;;2.20;100.00
11099;BME280;12223;42.650;23.364;2023-02-14T03:48:29;95985.41;;;2.28;100.00
11099;BME280;12223;42.650;23.364;2023-02-14T03:50:58;95991.06;;;2.33;100.00
11099;BME280;12223;42.650;23.364;2023-02-14T03:53:27;95979.13;;;2.21;100.00
11099;BME280;12223;42.650;23.364;2023-02-14T03:56:02;95968.81;;;2.10;100.00
11099;BME280;12223;42.650;23.364;2023-02-14T03:58:36;95971.72;;;2.07;100.00
11099;BME280;12223;42.650;23.364;2023-02-14T04:01:10;95973.50;;;2.07;100.00
11099;BME280;12223;42.650;23.364;2023-02-14T04:03:40;95959.91;;;2.13;100.00
11099;BME280;12223;42.650;23.364;2023-02-14T04:06:08;95962.53;;;2.13;100.00
11099;BME280;12223;42.650;23.364;2023-02-14T04:08:35;95963.34;;;2.03;100.00
11099;BME280;12223;42.650;23.364;2023-02-14T04:11:04;95957.88;;;2.07;100.00
11099;BME280;12223;42.650;23.364;2023-02-14T04:13:33;95959.09;;;2.02;100.00
11099;BME280;12223;42.650;23.364;2023-02-14T04:16:00;95948.53;;;2.04;100.00
11099;BME280;12223;42.650;23.364;2023-02-14T04:18:27;95961.56;;;2.04;100.00
11099;BME280;12223;42.650;23.364;2023-02-14T04:21:11;95958.81;;;2.06;100.00
11099;BME280;12223;42.650;23.364;2023-02-14T04:23:38;95960.91;;;2.02;100.00
11099;BME280;12223;42.650;23.364;2023-02-14T04:26:07;95961.44;;;2.06;100.00
11099;BME280;12223;42.650;23.364;2023-02-14T04:28:34;95963.91;;;1.97;100.00
11099;BME280;12223;42.650;23.364;2023-02-14T04:31:01;95956.75;;;2.09;100.00
11099;BME280;12223;42.650;23.364;2023-02-14T04:33:28;95949.50;;;2.03;100.00
11099;BME280;12223;42.650;23.364;2023-02-14T04:35:55;95959.25;;;2.01;100.00
11099;BME280;12223;42.650;23.364;2023-02-14T04:38:22;95955.69;;;2.02;100.00
11099;BME280;12223;42.650;23.364;2023-02-14T04:40:49;95957.06;;;2.06;100.00
11099;BME280;12223;42.650;23.364;2023-02-14T04:43:17;95949.34;;;2.05;100.00
11099;BME280;12223;42.650;23.364;2023-02-14T04:45:45;95940.84;;;2.02;100.00
11099;BME280;12223;42.650;23.364;2023-02-14T04:48:12;95939.06;;;2.03;100.00
11099;BME280;12223;42.650;23.364;2023-02-14T04:50:38;95938.25;;;2.02;100.00
11099;BME280;12223;42.650;23.364;2023-02-14T04:53:05;95939.50;;;2.08;100.00
11099;BME280;12223;42.650;23.364;2023-02-14T04:55:32;95935.81;;;2.01;100.00
11099;BME280;12223;42.650;23.364;2023-02-14T04:57:59;95937.72;;;1.89;100.00
11099;BME280;12223;42.650;23.364;2023-02-14T05:00:27;95931.81;;;2.07;100.00
11099;BME280;12223;42.650;23.364;2023-02-14T05:02:54;95926.72;;;2.05;100.00
11099;BME280;12223;42.650;23.364;2023-02-14T05:05:20;95939.50;;;1.98;100.00
11099;BME280;12223;42.650;23.364;2023-02-14T05:07:47;95944.56;;;2.00;100.00
11099;BME280;12223;42.650;23.364;2023-02-14T05:10:14;95949.09;;;2.08;100.00
11099;BME280;12223;42.650;23.364;2023-02-14T05:12:41;95927.97;;;2.11;100.00
11099;BME280;12223;42.650;23.364;2023-02-14T05:15:08;95935.38;;;2.06;100.00
11099;BME280;12223;42.650;23.364;2023-02-14T05:17:36;95939.78;;;2.15;100.00
11099;BME280;12223;42.650;23.364;2023-02-14T05:20:04;95938.13;;;2.14;100.00
11099;BME280;12223;42.650;23.364;2023-02-14T05:22:31;95929.91;;;2.09;100.00
11099;BME280;12223;42.650;23.364;2023-02-14T05:24:58;95942.34;;;2.24;99.92
11099;BME280;12223;42.650;23.364;2023-02-14T05:27:25;95927.41;;;2.26;98.90
11099;BME280;12223;42.650;23.364;2023-02-14T05:29:51;95941.09;;;2.28;97.98
11099;BME280;12223;42.650;23.364;2023-02-14T05:32:18;95935.06;;;2.37;97.48
11099;BME280;12223;42.650;23.364;2023-02-14T05:34:47;95935.63;;;2.31;97.36
11099;BME280;12223;42.650;23.364;2023-02-14T05:37:13;95934.38;;;2.35;97.20
11099;BME280;12223;42.650;23.364;2023-02-14T05:39:40;95934.53;;;2.34;96.89
11099;BME280;12223;42.650;23.364;2023-02-14T05:42:07;95940.84;;;2.31;96.74
11099;BME280;12223;42.650;23.364;2023-02-14T05:44:33;95931.09;;;2.33;97.18
11099;BME280;12223;42.650;23.364;2023-02-14T05:47:00;95928.63;;;2.32;97.67
11099;BME280;12223;42.650;23.364;2023-02-14T05:49:27;95932.31;;;2.39;97.01
11099;BME280;12223;42.650;23.364;2023-02-14T05:51:55;95917.75;;;2.46;96.56
11099;BME280;12223;42.650;23.364;2023-02-14T05:54:22;95931.19;;;2.51;96.64
11099;BME280;12223;42.650;23.364;2023-02-14T05:56:48;95922.47;;;2.70;95.02
11099;BME280;12223;42.650;23.364;2023-02-14T05:59:15;95922.88;;;2.75;93.72
11099;BME280;12223;42.650;23.364;2023-02-14T06:01:42;95932.66;;;3.00;92.32
11099;BME280;12223;42.650;23.364;2023-02-14T06:04:09;95924.38;;;3.05;91.23
11099;BME280;12223;42.650;23.364;2023-02-14T06:06:35;95920.69;;;3.25;90.15
11099;BME280;12223;42.650;23.364;2023-02-14T06:09:04;95928.28;;;3.63;87.56
11099;BME280;12223;42.650;23.364;2023-02-14T06:11:30;95938.13;;;4.05;82.86
11099;BME280;12223;42.650;23.364;2023-02-14T06:13:57;95941.97;;;4.88;75.79
11099;BME280;12223;42.650;23.364;2023-02-14T06:16:24;95936.25;;;5.69;69.58
11099;BME280;12223;42.650;23.364;2023-02-14T06:18:51;95936.59;;;6.71;63.09
11099;BME280;12223;42.650;23.364;2023-02-14T06:21:17;95917.31;;;7.11;59.12
11099;BME280;12223;42.650;23.364;2023-02-14T06:23:44;95926.69;;;7.44;56.96
11099;BME280;12223;42.650;23.364;2023-02-14T06:26:12;95933.59;;;7.76;55.40
11099;BME280;12223;42.650;23.364;2023-02-14T06:28:39;95942.72;;;8.57;53.14
11099;BME280;12223;42.650;23.364;2023-02-14T06:31:07;95933.16;;;8.93;50.92
11099;BME280;12223;42.650;23.364;2023-02-14T06:33:33;95933.09;;;8.49;50.25
11099;BME280;12223;42.650;23.364;2023-02-14T06:36:00;95935.56;;;7.43;52.77
11099;BME280;12223;42.650;23.364;2023-02-14T06:38:27;95938.34;;;7.03;54.67
11099;BME280;12223;42.650;23.364;2023-02-14T06:40:54;95928.13;;;6.44;56.16
11099;BME280;12223;42.650;23.364;2023-02-14T06:43:22;95939.44;;;6.04;58.68
11099;BME280;12223;42.650;23.364;2023-02-14T06:45:48;95939.69;;;5.85;60.21
11099;BME280;12223;42.650;23.364;2023-02-14T06:48:15;95937.72;;;5.71;61.82
11099;BME280;12223;42.650;23.364;2023-02-14T06:50:42;95932.22;;;5.98;62.24
11099;BME280;12223;42.650;23.364;2023-02-14T06:53:09;95923.22;;;6.25;60.63
11099;BME280;12223;42.650;23.364;2023-02-14T06:55:36;95927.34;;;7.07;57.78
11099;BME280;12223;42.650;23.364;2023-02-14T06:58:02;95930.69;;;7.32;56.03
11099;BME280;12223;42.650;23.364;2023-02-14T07:00:30;95910.19;;;7.58;55.51
11099;BME280;12223;42.650;23.364;2023-02-14T07:02:57;95934.22;;;7.47;54.42
11099;BME280;12223;42.650;23.364;2023-02-14T07:05:24;95915.06;;;6.92;55.71
11099;BME280;12223;42.650;23.364;2023-02-14T07:07:51;95909.25;;;6.41;57.92
11099;BME280;12223;42.650;23.364;2023-02-14T07:10:18;95907.28;;;5.94;59.85
11099;BME280;12223;42.650;23.364;2023-02-14T07:12:45;95908.19;;;5.53;62.84
11099;BME280;12223;42.650;23.364;2023-02-14T07:15:12;95910.06;;;5.18;65.84
11099;BME280;12223;42.650;23.364;2023-02-14T07:17:40;95917.06;;;4.76;69.31
11099;BME280;12223;42.650;23.364;2023-02-14T07:20:09;95920.28;;;4.70;73.60
11099;BME280;12223;42.650;23.364;2023-02-14T07:22:36;95925.94;;;4.57;75.10
11099;BME280;12223;42.650;23.364;2023-02-14T07:25:04;95926.41;;;4.53;76.97
11099;BME280;12223;42.650;23.364;2023-02-14T07:27:31;95911.63;;;4.43;78.59
11099;BME280;12223;42.650;23.364;2023-02-14T07:29:58;95920.06;;;4.37;80.86
11099;BME280;12223;42.650;23.364;2023-02-14T07:32:25;95935.72;;;4.29;82.61
11099;BME280;12223;42.650;23.364;2023-02-14T07:34:53;95920.88;;;4.12;85.42
11099;BME280;12223;42.650;23.364;2023-02-14T07:37:20;95926.06;;;4.04;87.66
11099;BME280;12223;42.650;23.364;2023-02-14T07:39:47;95933.38;;;4.00;90.19
11099;BME280;12223;42.650;23.364;2023-02-14T07:42:13;95929.47;;;3.87;95.31
11099;BME280;12223;42.650;23.364;2023-02-14T07:44:40;95923.44;;;3.69;96.46
11099;BME280;12223;42.650;23.364;2023-02-14T07:47:08;95938.22;;;3.60;99.47
11099;BME280;12223;42.650;23.364;2023-02-14T07:49:36;95942.63;;;3.59;100.00
11099;BME280;12223;42.650;23.364;2023-02-14T07:52:04;95942.81;;;3.48;100.00
11099;BME280;12223;42.650;23.364;2023-02-14T07:54:31;95951.16;;;3.34;100.00
11099;BME280;12223;42.650;23.364;2023-02-14T07:56:57;95947.84;;;3.59;100.00
11099;BME280;12223;42.650;23.364;2023-02-14T07:59:24;95952.59;;;3.46;100.00
11099;BME280;12223;42.650;23.364;2023-02-14T08:01:51;95945.25;;;3.59;100.00
11099;BME280;12223;42.650;23.364;2023-02-14T08:04:18;95947.31;;;3.74;100.00
11099;BME280;12223;42.650;23.364;2023-02-14T08:06:45;95956.28;;;3.71;100.00
11099;BME280;12223;42.650;23.364;2023-02-14T08:09:14;95939.31;;;3.57;100.00
11099;BME280;12223;42.650;23.364;2023-02-14T08:11:49;95959.50;;;3.65;100.00
11099;BME280;12223;42.650;23.364;2023-02-14T08:14:33;95955.31;;;3.72;100.00
11099;BME280;12223;42.650;23.364;2023-02-14T08:17:02;95955.25;;;3.64;100.00
11099;BME280;12223;42.650;23.364;2023-02-14T08:19:29;95952.16;;;3.51;100.00
11099;BME280;12223;42.650;23.364;2023-02-14T08:21:56;95964.59;;;3.67;100.00
11099;BME280;12223;42.650;23.364;2023-02-14T08:24:24;95961.97;;;3.67;100.00
11099;BME280;12223;42.650;23.364;2023-02-14T08:26:51;95961.16;;;3.11;100.00
11099;BME280;12223;42.650;23.364;2023-02-14T08:29:18;95973.03;;;3.33;100.00
11099;BME280;12223;42.650;23.364;2023-02-14T08:31:45;95957.44;;;3.41;100.00
11099;BME280;12223;42.650;23.364;2023-02-14T08:34:13;95968.44;;;3.62;100.00
11099;BME280;12223;42.650;23.364;2023-02-14T08:36:40;95951.22;;;3.70;100.00
11099;BME280;12223;42.650;23.364;2023-02-14T08:39:07;95944.56;;;3.75;100.00
11099;BME280;12223;42.650;23.364;2023-02-14T08:41:35;95950.75;;;3.74;100.00
11099;BME280;12223;42.650;23.364;2023-02-14T08:44:02;95958.81;;;3.81;100.00
11099;BME280;12223;42.650;23.364;2023-02-14T08:46:29;95963.69;;;3.93;100.00
11099;BME280;12223;42.650;23.364;2023-02-14T08:48:56;95968.03;;;4.02;100.00
11099;BME280;12223;42.650;23.364;2023-02-14T08:51:23;95973.41;;;4.01;100.00
11099;BME280;12223;42.650;23.364;2023-02-14T08:53:50;95975.47;;;3.80;100.00
11099;BME280;12223;42.650;23.364;2023-02-14T08:56:18;95978.31;;;3.86;100.00
11099;BME280;12223;42.650;23.364;2023-02-14T08:58:51;95966.66;;;3.81;100.00
11099;BME280;12223;42.650;23.364;2023-02-14T09:01:18;95969.63;;;3.68;100.00
11099;BME280;12223;42.650;23.364;2023-02-14T09:03:44;95968.38;;;3.72;100.00
11099;BME280;12223;42.650;23.364;2023-02-14T09:06:13;95984.41;;;3.59;100.00
11099;BME280;12223;42.650;23.364;2023-02-14T09:08:42;95968.28;;;3.64;100.00
11099;BME280;12223;42.650;23.364;2023-02-14T09:11:10;95958.19;;;3.34;100.00
11099;BME280;12223;42.650;23.364;2023-02-14T09:13:38;95956.31;;;3.44;100.00
11099;BME280;12223;42.650;23.364;2023-02-14T09:16:07;95957.97;;;3.45;100.00
11099;BME280;12223;42.650;23.364;2023-02-14T09:18:35;95929.28;;;3.35;100.00
11099;BME280;12223;42.650;23.364;2023-02-14T09:21:06;95949.09;;;3.55;100.00
11099;BME280;12223;42.650;23.364;2023-02-14T09:23:34;95951.94;;;3.62;100.00
11099;BME280;12223;42.650;23.364;2023-02-14T09:26:02;95940.97;;;3.58;100.00
11099;BME280;12223;42.650;23.364;2023-02-14T09:28:29;95948.44;;;3.71;100.00
11099;BME280;12223;42.650;23.364;2023-02-14T09:30:57;95937.88;;;3.73;100.00
11099;BME280;12223;42.650;23.364;2023-02-14T09:33:27;95941.06;;;3.67;100.00
11099;BME280;12223;42.650;23.364;2023-02-14T09:36:08;95952.16;;;3.69;100.00
11099;BME280;12223;42.650;23.364;2023-02-14T09:38:52;95952.84;;;3.53;100.00
11099;BME280;12223;42.650;23.364;2023-02-14T09:41:41;95952.63;;;3.64;100.00
11099;BME280;12223;42.650;23.364;2023-02-14T09:44:22;95939.94;;;3.69;100.00
11099;BME280;12223;42.650;23.364;2023-02-14T09:46:53;95941.28;;;3.73;100.00
11099;BME280;12223;42.650;23.364;2023-02-14T09:49:29;95936.88;;;3.74;100.00
11099;BME280;12223;42.650;23.364;2023-02-14T09:52:00;95938.28;;;3.68;100.00
11099;BME280;12223;42.650;23.364;2023-02-14T09:54:28;95930.44;;;3.68;100.00
11099;BME280;12223;42.650;23.364;2023-02-14T09:56:57;95929.63;;;3.50;100.00
11099;BME280;12223;42.650;23.364;2023-02-14T09:59:29;95937.09;;;3.62;100.00
11099;BME280;12223;42.650;23.364;2023-02-14T10:02:08;95921.38;;;3.72;100.00
11099;BME280;12223;42.650;23.364;2023-02-14T10:04:56;95932.25;;;3.85;100.00
11099;BME280;12223;42.650;23.364;2023-02-14T10:07:34;95932.41;;;4.01;100.00
11099;BME280;12223;42.650;23.364;2023-02-14T10:10:07;95935.69;;;4.03;100.00
11099;BME280;12223;42.650;23.364;2023-02-14T10:12:43;95932.25;;;4.03;100.00
11099;BME280;12223;42.650;23.364;2023-02-14T10:15:13;95928.19;;;3.55;100.00
11099;BME280;12223;42.650;23.364;2023-02-14T10:17:43;95917.56;;;3.67;100.00
11099;BME280;12223;42.650;23.364;2023-02-14T10:20:23;95918.06;;;3.52;100.00
11099;BME280;12223;42.650;23.364;2023-02-14T10:22:56;95905.97;;;3.34;100.00
11099;BME280;12223;42.650;23.364;2023-02-14T10:25:28;95918.66;;;3.46;100.00
11099;BME280;12223;42.650;23.364;2023-02-14T10:28:00;95918.91;;;3.71;100.00
11099;BME280;12223;42.650;23.364;2023-02-14T10:30:35;95912.91;;;3.60;100.00
11099;BME280;12223;42.650;23.364;2023-02-14T10:33:07;95883.69;;;3.30;100.00
11099;BME280;12223;42.650;23.364;2023-02-14T10:35:45;95888.31;;;3.18;100.00
11099;BME280;12223;42.650;23.364;2023-02-14T10:38:20;95908.91;;;3.21;100.00
11099;BME280;12223;42.650;23.364;2023-02-14T10:41:09;95900.31;;;3.11;100.00
11099;BME280;12223;42.650;23.364;2023-02-14T10:43:46;95903.03;;;3.37;100.00
11099;BME280;12223;42.650;23.364;2023-02-14T10:46:24;95914.50;;;3.53;100.00
11099;BME280;12223;42.650;23.364;2023-02-14T10:48:57;95899.19;;;3.76;100.00
11099;BME280;12223;42.650;23.364;2023-02-14T10:51:33;95907.03;;;3.76;100.00
11099;BME280;12223;42.650;23.364;2023-02-14T10:54:15;95912.75;;;3.62;100.00
11099;BME280;12223;42.650;23.364;2023-02-14T10:56:44;95902.31;;;3.44;100.00
11099;BME280;12223;42.650;23.364;2023-02-14T10:59:19;95883.22;;;3.16;100.00
11099;BME280;12223;42.650;23.364;2023-02-14T11:01:48;95893.63;;;3.26;100.00
11099;BME280;12223;42.650;23.364;2023-02-14T11:04:17;95877.72;;;3.02;100.00
11099;BME280;12223;42.650;23.364;2023-02-14T11:06:47;95891.03;;;2.99;100.00
11099;BME280;12223;42.650;23.364;2023-02-14T11:09:15;95895.13;;;3.29;100.00
11099;BME280;12223;42.650;23.364;2023-02-14T11:11:44;95894.47;;;3.44;100.00
11099;BME280;12223;42.650;23.364;2023-02-14T11:14:22;95897.03;;;3.54;100.00
11099;BME280;12223;42.650;23.364;2023-02-14T11:16:49;95907.03;;;3.58;100.00
11099;BME280;12223;42.650;23.364;2023-02-14T11:19:23;95891.19;;;3.42;100.00
11099;BME280;12223;42.650;23.364;2023-02-14T11:21:52;95884.72;;;3.46;100.00
11099;BME280;12223;42.650;23.364;2023-02-14T11:24:26;95901.88;;;3.67;100.00
11099;BME280;12223;42.650;23.364;2023-02-14T11:26:54;95880.59;;;3.61;100.00
11099;BME280;12223;42.650;23.364;2023-02-14T11:29:26;95877.53;;;3.48;100.00
11099;BME280;12223;42.650;23.364;2023-02-14T11:31:53;95885.75;;;3.53;100.00
11099;BME280;12223;42.650;23.364;2023-02-14T11:34:30;95870.91;;;3.72;100.00
11099;BME280;12223;42.650;23.364;2023-02-14T11:36:59;95872.00;;;3.34;100.00
11099;BME280;12223;42.650;23.364;2023-02-14T11:39:29;95884.53;;;3.30;100.00
11099;BME280;12223;42.650;23.364;2023-02-14T11:41:58;95872.53;;;3.55;100.00
11099;BME280;12223;42.650;23.364;2023-02-14T11:44:27;95871.41;;;3.75;100.00
11099;BME280;12223;42.650;23.364;2023-02-14T11:46:56;95874.81;;;3.93;99.56
11099;BME280;12223;42.650;23.364;2023-02-14T11:49:26;95865.53;;;3.99;94.45
11099;BME280;12223;42.650;23.364;2023-02-14T11:51:55;95863.81;;;4.08;92.36
11099;BME280;12223;42.650;23.364;2023-02-14T11:54:31;95856.19;;;4.14;91.90
11099;BME280;12223;42.650;23.364;2023-02-14T11:57:05;95863.91;;;4.24;89.71
11099;BME280;12223;42.650;23.364;2023-02-14T11:59:37;95847.03;;;4.36;86.56
11099;BME280;12223;42.650;23.364;2023-02-14T12:02:24;95847.38;;;4.41;85.11
11099;BME280;12223;42.650;23.364;2023-02-14T12:04:54;95840.97;;;4.35;85.06
11099;BME280;12223;42.650;23.364;2023-02-14T12:07:25;95839.72;;;4.48;84.65
11099;BME280;12223;42.650;23.364;2023-02-14T12:10:16;95834.91;;;4.61;82.58
11099;BME280;12223;42.650;23.364;2023-02-14T12:12:53;95830.53;;;4.43;81.95
11099;BME280;12223;42.650;23.364;2023-02-14T12:15:26;95836.78;;;4.51;82.97
11099;BME280;12223;42.650;23.364;2023-02-14T12:17:59;95832.53;;;4.50;82.12
11099;BME280;12223;42.650;23.364;2023-02-14T12:20:36;95825.00;;;4.47;82.44
11099;BME280;12223;42.650;23.364;2023-02-14T12:23:11;95842.16;;;4.41;83.90
11099;BME280;12223;42.650;23.364;2023-02-14T12:25:46;95820.47;;;4.57;83.27
11099;BME280;12223;42.650;23.364;2023-02-14T12:28:18;95832.34;;;4.77;82.80
11099;BME280;12223;42.650;23.364;2023-02-14T12:30:48;95824.16;;;4.72;81.46
11099;BME280;12223;42.650;23.364;2023-02-14T12:33:18;95819.22;;;4.69;80.80
11099;BME280;12223;42.650;23.364;2023-02-14T12:35:51;95818.91;;;4.72;81.36
11099;BME280;12223;42.650;23.364;2023-02-14T12:38:27;95818.13;;;4.88;81.81
11099;BME280;12223;42.650;23.364;2023-02-14T12:41:03;95815.56;;;4.96;80.86
11099;BME280;12223;42.650;23.364;2023-02-14T12:43:45;95814.38;;;4.90;79.50
11099;BME280;12223;42.650;23.364;2023-02-14T12:49:39;95797.56;;;4.93;79.77
11099;BME280;12223;42.650;23.364;2023-02-14T12:52:24;95801.22;;;5.16;79.05
11099;BME280;12223;42.650;23.364;2023-02-14T12:55:03;95814.97;;;5.18;77.34
11099;BME280;12223;42.650;23.364;2023-02-14T12:57:41;95817.25;;;5.21;77.96
11099;BME280;12223;42.650;23.364;2023-02-14T13:00:23;95799.44;;;5.24;76.82
11099;BME280;12223;42.650;23.364;2023-02-14T13:05:55;95769.59;;;4.93;77.29
11099;BME280;12223;42.650;23.364;2023-02-14T13:08:36;95811.53;;;5.17;77.85
11099;BME280;12223;42.650;23.364;2023-02-14T13:11:14;95811.66;;;5.08;78.63
11099;BME280;12223;42.650;23.364;2023-02-14T13:13:52;95798.53;;;5.00;79.09
11099;BME280;12223;42.650;23.364;2023-02-14T13:16:26;95809.88;;;5.16;80.19
11099;BME280;12223;42.650;23.364;2023-02-14T13:19:00;95799.75;;;5.21;79.83
11099;BME280;12223;42.650;23.364;2023-02-14T13:21:33;95799.03;;;4.95;80.71
11099;BME280;12223;42.650;23.364;2023-02-14T13:24:10;95793.47;;;5.06;80.92
11099;BME280;12223;42.650;23.364;2023-02-14T13:26:42;95793.00;;;5.03;82.27
11099;BME280;12223;42.650;23.364;2023-02-14T13:29:14;95799.88;;;5.04;82.81